Impacts METAR Board
IDs:

KERV - Kerrville Muni, TX, US

Updated at: 0500 UTC 19 Aug 2019
Potential Impact None Slight Moderate High
Time 18/17Z 18/18Z 18/19Z 18/20Z 18/21Z 18/22Z 18/23Z 19/00Z 19/01Z 19/02Z 19/03Z 19/04Z 19/05Z
Temp89 92 93 97 97 98 97 97 93 89 86 85 83
Dewpt71 70 70 68 64 65 63 62 64 66 66 70 71
Altim29.96 29.95 29.93 29.92 29.90 29.88 29.88 29.87 29.88 29.90 29.92 29.95 29.98
VIS10 10 10 10 10 10 10 10 10 10 10 10 10
CIG-- -- -- -- -- -- -- -- -- -- -- -- --
CoverCLRCLRCLRCLRCLRCLRCLRCLRSCTCLRCLRCLRCLR
FltCatVFRVFRVFRVFRVFRVFRVFRVFRVFRVFRVFRVFRVFR
WX--------------------------
WDir1801701401601801701600140120120140150
WSpd9 12 9 8 5 5 4 0 8 4 9 13 7
WGst14 17 -- 15 -- -- -- -- -- -- 14 18 --
Raw hourly METARs
KERV 181655Z AUTO 18009G14KT 10SM CLR 31/22 A2996 RMK AO2 T03140216
KERV 181755Z AUTO 17012G17KT 10SM CLR 33/21 A2995 RMK AO2 T03310210 10331 20233
KERV 181855Z AUTO 14009KT 10SM CLR 34/21 A2993 RMK AO2 T03390209
KERV 181955Z AUTO 16008G15KT 10SM CLR 36/20 A2992 RMK AO2 T03600199
KERV 182055Z AUTO 18005KT 10SM CLR 36/18 A2990 RMK AO2 T03600177
KERV 182155Z AUTO 17005KT 10SM CLR 37/18 A2988 RMK AO2 T03680181
KERV 182255Z AUTO 16004KT 10SM CLR 36/17 A2988 RMK AO2 T03610173
KERV 182355Z AUTO 00000KT 10SM CLR 36/17 A2987 RMK AO2 T03600165 10373 20331
KERV 190055Z AUTO 14008KT 10SM SCT070 34/18 A2988 RMK AO2 T03400179
KERV 190155Z AUTO 12004KT 10SM CLR 32/19 A2990 RMK AO2 T03170188
KERV 190255Z AUTO 12009G14KT 10SM CLR 30/19 A2992 RMK AO2 T03020190
KERV 190355Z AUTO 14013G18KT 10SM CLR 30/21 A2995 RMK AO2 T02960210
KERV 190455Z AUTO 15007KT 10SM CLR 28/22 A2998 RMK AO2 T02820215



Page loaded:  05:25 UTC  |   10:25 PM Pacific  |   11:25 PM Mountain  |   12:25 AM Central  |   01:25 AM Eastern

 

ADVISORIES

FORECASTS

FORECASTS

OBSERVATIONS

USER TOOLS

ABOUT US